Home > Products > Valid Products > MTR

000
SAUS44 KEWX 221410
MTRATT
SPECI KATT 221409Z AUTO 00000KT 2 1/2SM BR OVC002 19/19 A3013 RMK
AO2 RAE01 P0000 T01890189





000
SAUS44 KEWX 221352
MTRATT
METAR KATT 221351Z AUTO VRB03KT 1SM -RA BR OVC002 19/18 A3012 RMK
AO2 RAB1254E05B51 SLP195 P0000 T01890183





000
SAUS44 KEWX 221253
MTRATT
METAR KATT 221251Z AUTO 08004KT 3/4SM BR OVC002 18/18 A3011 RMK AO2
RAB07E41 SLP191 P0000 T01830178





000
SAUS44 KEWX 221253
MTRATT
METAR KATT 221251Z AUTO 08004KT 3/4SM BR OVC002 18/18 A3011 RMK AO2
RAB07E41 SLP191 P0000 T01830178





000
SAUS44 KEWX 221221
MTRATT
SPECI KATT 221220Z AUTO VRB03KT 3/4SM -RA BR OVC002 18/18 A3010 RMK
AO2 RAB07 P0000 T01780178





000
SAUS44 KEWX 221221
MTRATT
SPECI KATT 221220Z AUTO VRB03KT 3/4SM -RA BR OVC002 18/18 A3010 RMK
AO2 RAB07 P0000 T01780178





000
SAUS44 KEWX 221153
MTRATT
METAR KATT 221151Z AUTO 00000KT 1 1/4SM BR OVC002 18/18 A3010 RMK
AO2 SLP186 T01780178 10178 20167 55003





000
SAUS44 KEWX 221153
MTRATT
METAR KATT 221151Z AUTO 00000KT 1 1/4SM BR OVC002 18/18 A3010 RMK
AO2 SLP186 T01780178 10178 20167 55003





000
SAUS44 KEWX 221053
MTRATT
METAR KATT 221051Z AUTO VRB03KT 1 1/4SM BR OVC002 17/17 A3009 RMK
AO2 SLP183 T01720172





000
SAUS44 KEWX 221053
MTRATT
METAR KATT 221051Z AUTO VRB03KT 1 1/4SM BR OVC002 17/17 A3009 RMK
AO2 SLP183 T01720172





000
SAUS44 KEWX 221021
MTRATT
SPECI KATT 221020Z AUTO VRB04KT 1 1/2SM BR OVC002 17/17 A3009 RMK
AO2 T01720167





000
SAUS44 KEWX 221003
MTRATT
SPECI KATT 221002Z AUTO VRB03KT 2 1/2SM BR OVC002 17/17 A3010 RMK
AO2 T01720167





000
SAUS44 KEWX 220952
MTRATT
METAR KATT 220951Z AUTO 00000KT 3SM BR OVC003 17/17 A3010 RMK AO2
SLP187 T01720167





000
SAUS44 KEWX 220915
MTRATT
SPECI KATT 220913Z AUTO 00000KT 2SM BR OVC003 17/17 A3011 RMK AO2
T01720167





000
SAUS44 KEWX 220852
MTRATT
METAR KATT 220851Z AUTO 00000KT 4SM BR OVC003 17/17 A3011 RMK AO2
SLP189 T01720167 58007





000
SAUS44 KEWX 220841
MTRATT
SPECI KATT 220840Z AUTO 00000KT 5SM BR OVC004 17/17 A3011 RMK AO2
T01720167





000
SAUS44 KEWX 220752
MTRATT
METAR KATT 220751Z AUTO 00000KT 8SM OVC006 17/16 A3011 RMK AO2
SLP191 T01720161





000
SAUS44 KEWX 220653
MTRATT
METAR KATT 220651Z AUTO 00000KT 10SM OVC007 17/16 A3013 RMK AO2
SLP197 T01720161





000
SAUS44 KEWX 220653
MTRATT
METAR KATT 220651Z AUTO 00000KT 10SM OVC007 17/16 A3013 RMK AO2
SLP197 T01720161





000
SAUS44 KEWX 220552
MTRATT
METAR KATT 220551Z AUTO 03004KT 5SM BR OVC006 17/16 A3013 RMK AO2
SLP196 T01670161 10183 20167 402440167 51004





000
SAUS44 KEWX 220452
MTRATT
METAR KATT 220451Z AUTO 05007KT 10SM OVC009 17/16 A3013 RMK AO2
SLP195 T01720156





000
SAUS44 KEWX 220352
MTRATT
METAR KATT 220351Z AUTO 00000KT 10SM OVC009 17/16 A3012 RMK AO2
SLP194 T01720156





000
SAUS44 KEWX 220328
MTRATT
SPECI KATT 220327Z AUTO VRB03KT 9SM OVC009 18/16 A3011 RMK AO2
T01780156





000
SAUS44 KEWX 220328
MTRATT
SPECI KATT 220327Z AUTO VRB03KT 9SM OVC009 18/16 A3011 RMK AO2
T01780156





000
SAUS44 KEWX 220252
MTRATT
METAR KATT 220251Z AUTO 04004KT 10SM OVC012 18/16 A3012 RMK AO2
SLP193 T01780156 51003





000
SAUS44 KEWX 220152
MTRATT
METAR KATT 220151Z AUTO 03003KT 10SM OVC014 18/15 A3011 RMK AO2
SLP191 T01780150





000
SAUS44 KEWX 220052
MTRATT
METAR KATT 220051Z AUTO VRB05KT 10SM OVC014 18/15 A3013 RMK AO2
SLP197 T01830150





000
SAUS44 KEWX 220052
MTRATT
METAR KATT 220051Z AUTO VRB05KT 10SM OVC014 18/15 A3013 RMK AO2
SLP197 T01830150





000
SAUS44 KEWX 212352
MTRATT
METAR KATT 212351Z AUTO 03005KT 10SM OVC014 18/15 A3011 RMK AO2
SLP189 T01780150 10211 20178 55005





000
SAUS44 KEWX 212352
MTRATT
METAR KATT 212351Z AUTO 03005KT 10SM OVC014 18/15 A3011 RMK AO2
SLP189 T01780150 10211 20178 55005





000
SAUS44 KEWX 212327
MTRATT
SPECI KATT 212326Z AUTO VRB04KT 10SM OVC014 18/15 A3010 RMK AO2
T01830150





000
SAUS44 KEWX 212327
MTRATT
SPECI KATT 212326Z AUTO VRB04KT 10SM OVC014 18/15 A3010 RMK AO2
T01830150





000
SAUS44 KEWX 212252
MTRATT
METAR KATT 212251Z AUTO VRB06KT 10SM OVC015 18/15 A3010 RMK AO2
SLP187 T01830150





000
SAUS44 KEWX 212252
MTRATT
METAR KATT 212251Z AUTO VRB06KT 10SM OVC015 18/15 A3010 RMK AO2
SLP187 T01830150





000
SAUS44 KEWX 212152
MTRATT
METAR KATT 212151Z AUTO VRB06KT 10SM OVC017 19/15 A3011 RMK AO2
SLP190 T01940150





000
SAUS44 KEWX 212152
MTRATT
METAR KATT 212151Z AUTO VRB06KT 10SM OVC017 19/15 A3011 RMK AO2
SLP190 T01940150





000
SAUS44 KEWX 212052
MTRATT
METAR KATT 212051Z AUTO 02007KT 10SM OVC018 20/16 A3012 RMK AO2
SLP193 T02000156 58002





000
SAUS44 KEWX 212052
MTRATT
METAR KATT 212051Z AUTO 02007KT 10SM OVC018 20/16 A3012 RMK AO2
SLP193 T02000156 58002





000
SAUS44 KEWX 211953
MTRATT
METAR KATT 211951Z AUTO VRB05KT 10SM OVC017 21/16 A3012 RMK AO2
SLP192 T02060156





000
SAUS44 KEWX 211852
MTRATT
METAR KATT 211851Z AUTO 36008KT 10SM OVC020 20/16 A3014 RMK AO2
SLP198 T02000156





000
SAUS44 KEWX 211852
MTRATT
METAR KATT 211851Z AUTO 36008KT 10SM OVC020 20/16 A3014 RMK AO2
SLP198 T02000156





000
SAUS44 KEWX 211752
MTRATT
METAR KATT 211751Z AUTO 04008KT 10SM OVC020 21/16 A3013 RMK AO2
SLP193 60000 T02060156 10211 20172 58005





000
SAUS44 KEWX 211752
MTRATT
METAR KATT 211751Z AUTO 04008KT 10SM OVC020 21/16 A3013 RMK AO2
SLP193 60000 T02060156 10211 20172 58005





000
SAUS44 KEWX 211652
MTRATT
METAR KATT 211651Z AUTO 36007KT 10SM OVC020 21/16 A3015 RMK AO2
SLP200 T02060156





000
SAUS44 KEWX 211652
MTRATT
METAR KATT 211651Z AUTO 36007KT 10SM OVC020 21/16 A3015 RMK AO2
SLP200 T02060156





000
SAUS44 KEWX 211552
MTRATT
METAR KATT 211551Z AUTO VRB06KT 10SM OVC015 19/15 A3016 RMK AO2
SLP203 T01890150





000
SAUS44 KEWX 211452
MTRATT
METAR KATT 211451Z AUTO 02008KT 350V090 10SM OVC012 18/15 A3014 RMK
AO2 SLP199 60000 T01780150 51024





000
SAUS44 KEWX 211452
MTRATT
METAR KATT 211451Z AUTO 02008KT 350V090 10SM OVC012 18/15 A3014 RMK
AO2 SLP199 60000 T01780150 51024





000
SAUS44 KEWX 211352
MTRATT
METAR KATT 211351Z AUTO 01010G16KT 10SM OVC010 18/16 A3014 RMK AO2
SLP196 T01780156





000
SAUS44 KEWX 211252
MTRATT
METAR KATT 211251Z AUTO 01006KT 10SM BKN011 OVC020 19/17 A3011 RMK
AO2 RAE1155B22E46 SLP188 P0000 T01890172





000
SAUS44 KEWX 211252
MTRATT
METAR KATT 211251Z AUTO 01006KT 10SM BKN011 OVC020 19/17 A3011 RMK
AO2 RAE1155B22E46 SLP188 P0000 T01890172





000
SAUS44 KEWX 211241
MTRATT
SPECI KATT 211240Z AUTO 01007G19KT 9SM -RA BKN009 OVC015 18/17 A3011
RMK AO2 RAE1155B22 P0000 T01830172





000
SAUS44 KEWX 211241
MTRATT
SPECI KATT 211240Z AUTO 01007G19KT 9SM -RA BKN009 OVC015 18/17 A3011
RMK AO2 RAE1155B22 P0000 T01830172





000
SAUS44 KEWX 211230
MTRATT
SPECI KATT 211229Z AUTO 02008G17KT 7SM -RA BKN010 OVC015 19/17 A3010
RMK AO2 RAE1155B22 CIG 008V013 P0000 T01890172





000
SAUS44 KEWX 211214
MTRATT
SPECI KATT 211213Z AUTO 10SM BKN009 OVC014 20/19 A3009 RMK AO2
RAE1155 CIG 008V011 P0000 T02000189





000
SAUS44 KEWX 211214
MTRATT
SPECI KATT 211213Z AUTO 10SM BKN009 OVC014 20/19 A3009 RMK AO2
RAE1155 CIG 008V011 P0000 T02000189





000
SAUS44 KEWX 211156 COR
MTRATT
METAR KATT 211151Z AUTO 02004KT 10SM -RA OVC010 21/19 A3007 RMK AO2
RAB14E26B34 SLP172 P0000 60002 70035 T02060194 10244 20206 53014





000
SAUS44 KEWX 211156 COR
MTRATT
METAR KATT 211151Z AUTO 02004KT 10SM -RA OVC010 21/19 A3007 RMK AO2
RAB14E26B34 SLP172 P0000 60002 70035 T02060194 10244 20206 53014





000
SAUS44 KEWX 211154 COR
MTRATT
METAR KATT 211151Z AUTO 02004KT 10SM -RA OVC010 21/19 A3007 RMK AO2
RAB14E26B34 SLP172 P0000 60002 70035 T02060194 10244 20206 53014





000
SAUS44 KEWX 211154 COR
MTRATT
METAR KATT 211151Z AUTO 02004KT 10SM -RA OVC010 21/19 A3007 RMK AO2
RAB14E26B34 SLP172 P0000 60002 70035 T02060194 10244 20206 53014





000
SAUS44 KEWX 211153 COR
MTRATT
METAR KATT 211151Z AUTO 02004KT 10SM -RA OVC010 21/19 A3007 RMK AO2
RAB14E26B34 SLP172 P0000 60002 70035 T02060194 10244 20206 53014





000
SAUS44 KEWX 211153 COR
MTRATT
METAR KATT 211151Z AUTO 02004KT 10SM -RA OVC010 21/19 A3007 RMK AO2
RAB14E26B34 SLP172 P0000 60002 70035 T02060194 10244 20206 53014





000
SAUS44 KEWX 211152
MTRATT
METAR KATT 211151Z AUTO 02004KT 10SM -RA OVC010 21/19 A3007 RMK AO2
RAB14E26B34 SLP172 P0000 60002 70035 T02060194 10244 20206 53014





000
SAUS44 KEWX 211152
MTRATT
METAR KATT 211151Z AUTO 02004KT 10SM -RA OVC010 21/19 A3007 RMK AO2
RAB14E26B34 SLP172 P0000 60002 70035 T02060194 10244 20206 53014





000
SAUS44 KEWX 211128
MTRATT
SPECI KATT 211127Z AUTO 04003KT 10SM BKN012 BKN090 OVC120 21/19
A3004 RMK AO2 RAB14E26 P0000 T02060189





000
SAUS44 KEWX 211052
MTRATT
METAR KATT 211051Z AUTO 03005KT 10SM FEW055 FEW100 21/20 A2997 RMK
AO2 RAE45 SLP137 P0000 T02060200





000
SAUS44 KEWX 211052
MTRATT
METAR KATT 211051Z AUTO 03005KT 10SM FEW055 FEW100 21/20 A2997 RMK
AO2 RAE45 SLP137 P0000 T02060200





000
SAUS44 KEWX 210952
MTRATT
METAR KATT 210951Z AUTO 00000KT 10SM -RA FEW095 BKN120 21/20 A3001
RMK AO2 RAB48 PRESFR SLP151 P0000 T02060200





000
SAUS44 KEWX 210852
MTRATT
METAR KATT 210851Z AUTO 35005KT 10SM CLR 21/20 A3003 RMK AO2
RAE13B27E38 TSE0757B11E26 SLP156 P0000 60002 T02060200 58004





000
SAUS44 KEWX 210852
MTRATT
METAR KATT 210851Z AUTO 35005KT 10SM CLR 21/20 A3003 RMK AO2
RAE13B27E38 TSE0757B11E26 SLP156 P0000 60002 T02060200 58004





000
SAUS44 KEWX 210833
MTRATT
SPECI KATT 210832Z AUTO VRB05KT 10SM -RA SCT070 21/19 A3005 RMK AO2
RAE13B27 TSE0757B11E26 P0000 T02060194





000
SAUS44 KEWX 210833
MTRATT
SPECI KATT 210832Z AUTO VRB05KT 10SM -RA SCT070 21/19 A3005 RMK AO2
RAE13B27 TSE0757B11E26 P0000 T02060194





000
SAUS44 KEWX 210818
MTRATT
SPECI KATT 210817Z AUTO 34005KT 10SM TS BKN070 21/19 A3006 RMK AO2
RAE13 TSE0757B11 P0000 T02060194





000
SAUS44 KEWX 210805
MTRATT
SPECI KATT 210803Z AUTO 34007G14KT 10SM VCTS -RA SCT049 BKN065 21/19
A3007 RMK AO2 TSE0757 P0000 T02060189





000
SAUS44 KEWX 210753
MTRATT
METAR KATT 210751Z AUTO 35005KT 10SM -TSRA BKN047 BKN060 OVC080
21/19 A3007 RMK AO2 TSB01B10B27 SLP169 P0002 T02060189





000
SAUS44 KEWX 210753
MTRATT
METAR KATT 210751Z AUTO 35005KT 10SM -TSRA BKN047 BKN060 OVC080
21/19 A3007 RMK AO2 TSB01B10B27 SLP169 P0002 T02060189





000
SAUS44 KEWX 210655 COR
MTRATT
METAR KATT 210651Z AUTO 31009G21KT 10SM -TSRA SCT021 BKN033 OVC055
21/19 A3007 RMK AO2 RAB47 TSB34 SLP171 P0000 T02110194





000
SAUS44 KEWX 210655 COR
MTRATT
METAR KATT 210651Z AUTO 31009G21KT 10SM -TSRA SCT021 BKN033 OVC055
21/19 A3007 RMK AO2 RAB47 TSB34 SLP171 P0000 T02110194





000
SAUS44 KEWX 210654 COR
MTRATT
METAR KATT 210651Z AUTO 31009G21KT 10SM -TSRA SCT021 BKN033 OVC055
21/19 A3007 RMK AO2 RAB47 TSB34 SLP171 P0000 T02110194





000
SAUS44 KEWX 210653 COR
MTRATT
METAR KATT 210651Z AUTO 31009G21KT 10SM -TSRA SCT021 BKN033 OVC055
21/19 A3007 RMK AO2 RAB47 TSB34 SLP171 P0000 T02110194





000
SAUS44 KEWX 210652
MTRATT
METAR KATT 210651Z AUTO 31009G21KT 10SM -TSRA SCT021 BKN033 OVC055
21/19 A3007 RMK AO2 RAB47 TSB34 SLP171 P0000 T02110194





000
SAUS44 KEWX 210637 COR
MTRATT
SPECI KATT 210632Z AUTO 26003KT 8SM TS BKN020 BKN041 OVC070 24/23
A3006 RMK AO2 T02440233





000
SAUS44 KEWX 210637 COR
MTRATT
SPECI KATT 210632Z AUTO 26003KT 8SM TS BKN020 BKN041 OVC070 24/23
A3006 RMK AO2 T02440233





000
SAUS44 KEWX 210636 COR
MTRATT
SPECI KATT 210632Z AUTO 26003KT 8SM TS BKN020 BKN041 OVC070 24/23
A3006 RMK AO2 T02440233





000
SAUS44 KEWX 210636 COR
MTRATT
SPECI KATT 210632Z AUTO 26003KT 8SM TS BKN020 BKN041 OVC070 24/23
A3006 RMK AO2 T02440233





000
SAUS44 KEWX 210635 COR
MTRATT
SPECI KATT 210632Z AUTO 26003KT 8SM TS BKN020 BKN041 OVC070 24/23
A3006 RMK AO2 T02440233





000
SAUS44 KEWX 210635 COR
MTRATT
SPECI KATT 210632Z AUTO 26003KT 8SM TS BKN020 BKN041 OVC070 24/23
A3006 RMK AO2 T02440233





000
SAUS44 KEWX 210634
MTRATT
SPECI KATT 210632Z AUTO 26003KT 8SM TS BKN020 BKN041 OVC070 24/23
A3006 RMK AO2 T02440233





000
SAUS44 KEWX 210553
MTRATT
METAR KATT 210551Z AUTO 00000KT 9SM OVC085 24/23 A3004 RMK AO2
SLP159 60033 T02440233 10283 20239 403170222 51020





000
SAUS44 KEWX 210453
MTRATT
METAR KATT 210451Z AUTO VRB04KT 8SM BKN090 24/23 A3002 RMK AO2
SLP154 T02440233





000
SAUS44 KEWX 210353
MTRATT
METAR KATT 210351Z AUTO 00000KT 5SM BR SCT031 BKN050 BKN080 25/24
A3002 RMK AO2 SLP153 T02500244





000
SAUS44 KEWX 210353
MTRATT
METAR KATT 210351Z AUTO 00000KT 5SM BR SCT031 BKN050 BKN080 25/24
A3002 RMK AO2 SLP153 T02500244





000
SAUS44 KEWX 210252
MTRATT
METAR KATT 210251Z AUTO 00000KT 6SM BR BKN031 26/24 A2998 RMK AO2
SLP140 60033 T02560244 51015





000
SAUS44 KEWX 210152
MTRATT
METAR KATT 210151Z AUTO 00000KT 6SM BR CLR 25/24 A2997 RMK AO2 RAE16
SLP137 P0002 T02500239





000
SAUS44 KEWX 210112
MTRATT
SPECI KATT 210111Z AUTO 00000KT 5SM -RA BR BKN036 BKN070 BKN095
24/23 A2996 RMK AO2 P0002 T02440233





000
SAUS44 KEWX 210112
MTRATT
SPECI KATT 210111Z AUTO 00000KT 5SM -RA BR BKN036 BKN070 BKN095
24/23 A2996 RMK AO2 P0002 T02440233





000
SAUS44 KEWX 210101
MTRATT
SPECI KATT 210100Z AUTO 00000KT 2SM -RA BR SCT047 BKN070 OVC090
25/24 A2995 RMK AO2 P0001 T02500239





000
SAUS44 KEWX 210101
MTRATT
SPECI KATT 210100Z AUTO 00000KT 2SM -RA BR SCT047 BKN070 OVC090
25/24 A2995 RMK AO2 P0001 T02500239





000
SAUS44 KEWX 210052
MTRATT
METAR KATT 210051Z AUTO 27003KT 1 3/4SM -RA BR SCT065 BKN080 OVC100
25/24 A2996 RMK AO2 TSB2357B06B24E45 SLP132 P0031 T02500239





000
SAUS44 KEWX 210025
MTRATT
SPECI KATT 210024Z AUTO 17003KT 1 1/4SM TSRA BR SCT045 BKN070 OVC095
24/24 A2995 RMK AO2 TSB2357B06B24 P0021 T02440239





000
SAUS44 KEWX 210025
MTRATT
SPECI KATT 210024Z AUTO 17003KT 1 1/4SM TSRA BR SCT045 BKN070 OVC095
24/24 A2995 RMK AO2 TSB2357B06B24 P0021 T02440239





000
SAUS44 KEWX 210019
MTRATT
SPECI KATT 210017Z AUTO 00000KT 2SM TSRA BR SCT045 BKN060 OVC100
25/23 A2994 RMK AO2 TSB2357B06 P0016 T02500233





000
SAUS44 KEWX 210019
MTRATT
SPECI KATT 210017Z AUTO 00000KT 2SM TSRA BR SCT045 BKN060 OVC100
25/23 A2994 RMK AO2 TSB2357B06 P0016 T02500233





000
SAUS44 KEWX 210000
MTRATT
SPECI KATT 202359Z AUTO 13011G18KT 1 1/2SM +TSRA FEW035 SCT047
BKN060 26/23 A2994 RMK AO2 TSB57 P0003 T02560228





000
SAUS44 KEWX 210000
MTRATT
SPECI KATT 202359Z AUTO 13011G18KT 1 1/2SM +TSRA FEW035 SCT047
BKN060 26/23 A2994 RMK AO2 TSB57 P0003 T02560228





000
SAUS44 KEWX 202352
MTRATT
METAR KATT 202351Z AUTO 14008KT 9SM -RA SCT035 BKN044 BKN055 29/22
A2994 RMK AO2 RAB51 SLP125 P0000 60000 T02890222 10317 20289 55004





000
SAUS44 KEWX 202352
MTRATT
METAR KATT 202351Z AUTO 14008KT 9SM -RA SCT035 BKN044 BKN055 29/22
A2994 RMK AO2 RAB51 SLP125 P0000 60000 T02890222 10317 20289 55004





000
SAUS44 KEWX 202252
MTRATT
METAR KATT 202251Z AUTO 14006KT 10SM FEW040 31/22 A2991 RMK AO2
SLP114 T03060222





000
SAUS44 KEWX 202152
MTRATT
METAR KATT 202151Z AUTO 16006KT 10SM FEW039 30/22 A2993 RMK AO2
SLP121 T03000222





000
SAUS44 KEWX 202152
MTRATT
METAR KATT 202151Z AUTO 16006KT 10SM FEW039 30/22 A2993 RMK AO2
SLP121 T03000222





000
SAUS44 KEWX 202052
MTRATT
METAR KATT 202051Z AUTO VRB03KT 10SM FEW038 32/22 A2995 RMK AO2
SLP128 T03170217 56014





000
SAUS44 KEWX 201952
MTRATT
METAR KATT 201951Z AUTO 10SM FEW032 SCT090 31/22 A2996 RMK AO2
SLP132 T03110222





000
SAUS44 KEWX 201853
MTRATT
METAR KATT 201851Z AUTO 08003KT 10SM FEW038 BKN090 30/22 A2997 RMK
AO2 SLP137 T03000217





000
SAUS44 KEWX 201752
MTRATT
METAR KATT 201751Z AUTO 13006KT 10SM FEW090 30/22 A2999 RMK AO2
SLP142 T03000222 10300 20228 58005





000
SAUS44 KEWX 201752
MTRATT
METAR KATT 201751Z AUTO 13006KT 10SM FEW090 30/22 A2999 RMK AO2
SLP142 T03000222 10300 20228 58005





000
SAUS44 KEWX 201705
MTRATT
SPECI KATT 201704Z AUTO VRB06KT 9SM SCT022 BKN033 BKN075 28/23 A3000
RMK AO2 T02780228





000
SAUS44 KEWX 201705
MTRATT
SPECI KATT 201704Z AUTO VRB06KT 9SM SCT022 BKN033 BKN075 28/23 A3000
RMK AO2 T02780228





000
SAUS44 KEWX 201652
MTRATT
METAR KATT 201651Z AUTO 12006KT 9SM BKN022 BKN029 OVC036 27/22 A3001
RMK AO2 SLP148 T02670222





000
SAUS44 KEWX 201652
MTRATT
METAR KATT 201651Z AUTO 12006KT 9SM BKN022 BKN029 OVC036 27/22 A3001
RMK AO2 SLP148 T02670222





000
SAUS44 KEWX 201615
MTRATT
SPECI KATT 201614Z AUTO VRB03KT 9SM BKN020 BKN026 OVC070 28/22 A3001
RMK AO2 T02780222





000
SAUS44 KEWX 201615
MTRATT
SPECI KATT 201614Z AUTO VRB03KT 9SM BKN020 BKN026 OVC070 28/22 A3001
RMK AO2 T02780222





000
SAUS44 KEWX 201552
MTRATT
METAR KATT 201551Z AUTO 11003KT 10SM FEW025 BKN070 27/22 A3001 RMK
AO2 SLP149 T02720222





000
SAUS44 KEWX 201541
MTRATT
SPECI KATT 201540Z AUTO VRB03KT 10SM FEW016 SCT025 BKN065 27/22
A3001 RMK AO2 T02720222





000
SAUS44 KEWX 201452
MTRATT
METAR KATT 201451Z AUTO 13003KT 9SM SCT015 BKN029 OVC055 26/22 A3001
RMK AO2 SLP149 T02610222 53023





000
SAUS44 KEWX 201452
MTRATT
METAR KATT 201451Z AUTO 13003KT 9SM SCT015 BKN029 OVC055 26/22 A3001
RMK AO2 SLP149 T02610222 53023





000
SAUS44 KEWX 201419
MTRATT
SPECI KATT 201418Z AUTO 17004KT 8SM SCT014 BKN023 OVC045 25/22 A3000
RMK AO2 T02500222





000
SAUS44 KEWX 201352
MTRATT
METAR KATT 201351Z AUTO 18004KT 7SM BKN010 BKN016 OVC027 25/23 A2998
RMK AO2 CIG 009V013 SLP139 T02500228





000
SAUS44 KEWX 201352
MTRATT
METAR KATT 201351Z AUTO 18004KT 7SM BKN010 BKN016 OVC027 25/23 A2998
RMK AO2 CIG 009V013 SLP139 T02500228





000
SAUS44 KEWX 201317
MTRATT
SPECI KATT 201316Z AUTO 15006KT 6SM BR BKN010 OVC020 24/22 A2996 RMK
AO2 T02440222





000
SAUS44 KEWX 201252
MTRATT
METAR KATT 201251Z AUTO 17004KT 6SM BR BKN009 OVC014 24/22 A2996 RMK
AO2 SLP131 T02390222





000
SAUS44 KEWX 201252
MTRATT
METAR KATT 201251Z AUTO 17004KT 6SM BR BKN009 OVC014 24/22 A2996 RMK
AO2 SLP131 T02390222





000
SAUS44 KEWX 201205
MTRATT
SPECI KATT 201204Z AUTO VRB03KT 7SM OVC009 23/22 A2995 RMK AO2 CIG
007V012 T02330217





000
SAUS44 KEWX 201205
MTRATT
SPECI KATT 201204Z AUTO VRB03KT 7SM OVC009 23/22 A2995 RMK AO2 CIG
007V012 T02330217





000
SAUS44 KEWX 201152
MTRATT
METAR KATT 201151Z AUTO 00000KT 8SM OVC010 23/22 A2994 RMK AO2 CIG
008V012 SLP125 T02280217 10239 20222 53008





000
SAUS44 KEWX 201152
MTRATT
METAR KATT 201151Z AUTO 00000KT 8SM OVC010 23/22 A2994 RMK AO2 CIG
008V012 SLP125 T02280217 10239 20222 53008





000
SAUS44 KEWX 201100
MTRATT
SPECI KATT 201059Z AUTO 00000KT 9SM BKN013 BKN026 BKN037 23/22 A2993
RMK AO2 T02280217





000
SAUS44 KEWX 201100
MTRATT
SPECI KATT 201059Z AUTO 00000KT 9SM BKN013 BKN026 BKN037 23/22 A2993
RMK AO2 T02280217





000
SAUS44 KEWX 201052
MTRATT
METAR KATT 201051Z AUTO 17003KT 9SM FEW011 SCT024 SCT037 23/21 A2993
RMK AO2 SLP123 T02280211





000
SAUS44 KEWX 200952
MTRATT
METAR KATT 200951Z AUTO 10SM SCT012 23/21 A2992 RMK AO2 SLP119
T02280211





000
SAUS44 KEWX 200952
MTRATT
METAR KATT 200951Z AUTO 10SM SCT012 23/21 A2992 RMK AO2 SLP119
T02280211





000
SAUS44 KEWX 200938
MTRATT
SPECI KATT 200937Z AUTO 18005KT 10SM BKN012 23/21 A2992 RMK AO2
T02280211





000
SAUS44 KEWX 200938
MTRATT
SPECI KATT 200937Z AUTO 18005KT 10SM BKN012 23/21 A2992 RMK AO2
T02280211





000
SAUS44 KEWX 200904
MTRATT
SPECI KATT 200903Z AUTO 18005KT 10SM SCT014 BKN030 23/21 A2991 RMK
AO2 T02330211





000
SAUS44 KEWX 200852
MTRATT
METAR KATT 200851Z AUTO 19005KT 10SM SCT014 SCT020 BKN026 23/21
A2991 RMK AO2 SLP116 T02330211 55009





000
SAUS44 KEWX 200823
MTRATT
SPECI KATT 200822Z AUTO 20006KT 10SM BKN015 BKN019 OVC027 24/21
A2992 RMK AO2 T02390211





000
SAUS44 KEWX 200752
MTRATT
METAR KATT 200751Z AUTO VRB05KT 10SM BKN013 BKN022 OVC027 23/21
A2991 RMK AO2 SLP115 T02330211





000
SAUS44 KEWX 200653
MTRATT
METAR KATT 200651Z AUTO 16006G15KT 10SM BKN013 OVC020 24/22 A2992
RMK AO2 SLP117 T02390217





000
SAUS44 KEWX 200653
MTRATT
METAR KATT 200651Z AUTO 16006G15KT 10SM BKN013 OVC020 24/22 A2992
RMK AO2 SLP117 T02390217





000
SAUS44 KEWX 200552
MTRATT
METAR KATT 200551Z AUTO 16008G18KT 130V220 10SM OVC012 24/22 A2994
RMK AO2 SLP127 T02390217 10283 20239 403170233 55003





000
SAUS44 KEWX 200552
MTRATT
METAR KATT 200551Z AUTO 16008G18KT 130V220 10SM OVC012 24/22 A2994
RMK AO2 SLP127 T02390217 10283 20239 403170233 55003





000
SAUS44 KEWX 200539
MTRATT
SPECI KATT 200538Z AUTO 16006KT 10SM OVC012 24/22 A2994 RMK AO2
T02390217





000
SAUS44 KEWX 200539
MTRATT
SPECI KATT 200538Z AUTO 16006KT 10SM OVC012 24/22 A2994 RMK AO2
T02390217





000
SAUS44 KEWX 200510
MTRATT
SPECI KATT 200509Z AUTO 16006G15KT 10SM BKN017 24/21 A2994 RMK AO2
T02390211





000
SAUS44 KEWX 200510
MTRATT
SPECI KATT 200509Z AUTO 16006G15KT 10SM BKN017 24/21 A2994 RMK AO2
T02390211





000
SAUS44 KEWX 200453
MTRATT
METAR KATT 200451Z AUTO 16007G16KT 10SM FEW015 24/21 A2994 RMK AO2
SLP126 T02390211





000
SAUS44 KEWX 200352
MTRATT
METAR KATT 200351Z AUTO 15010G19KT 110V190 10SM CLR 24/21 A2994 RMK
AO2 SLP128 T02440206





000
SAUS44 KEWX 200253
MTRATT
METAR KATT 200251Z AUTO 16006KT 10SM CLR 26/21 A2995 RMK AO2 SLP130
T02560211 53018





000
SAUS44 KEWX 200152
MTRATT
METAR KATT 200151Z AUTO 16005G16KT 10SM CLR 27/21 A2994 RMK AO2
SLP124 T02670211





000
SAUS44 KEWX 200152
MTRATT
METAR KATT 200151Z AUTO 16005G16KT 10SM CLR 27/21 A2994 RMK AO2
SLP124 T02670211





000
SAUS44 KEWX 200053
MTRATT
METAR KATT 200051Z AUTO 17005KT 10SM SCT043 27/21 A2991 RMK AO2
SLP116 T02720211





000
SAUS44 KEWX 192352
MTRATT
METAR KATT 192351Z AUTO 16010G16KT 110V180 10SM FEW080 28/22 A2990
RMK AO2 SLP112 T02830217 10317 20278 58014





000
SAUS44 KEWX 192253
MTRATT
METAR KATT 192251Z AUTO 15008G17KT 10SM FEW035 SCT042 BKN050 29/22
A2991 RMK AO2 SLP116 T02940217





000
SAUS44 KEWX 192152
MTRATT
METAR KATT 192151Z AUTO 17008G19KT 10SM SCT040 SCT080 29/22 A2993
RMK AO2 SLP121 T02890217





000
SAUS44 KEWX 192053
MTRATT
METAR KATT 192051Z AUTO 17008G21KT 140V200 10SM SCT040 SCT050 30/22
A2994 RMK AO2 SLP125 T03000217 58022





000
SAUS44 KEWX 191952
MTRATT
METAR KATT 191951Z AUTO 17008G19KT 150V210 10SM CLR 31/22 A2996 RMK
AO2 SLP132 T03060217





000
SAUS44 KEWX 191952
MTRATT
METAR KATT 191951Z AUTO 17008G19KT 150V210 10SM CLR 31/22 A2996 RMK
AO2 SLP132 T03060217





000
SAUS44 KEWX 191852
MTRATT
METAR KATT 191851Z AUTO 14011G18KT 10SM FEW030 BKN038 BKN060 29/23
A2999 RMK AO2 SLP141 T02940228





000
SAUS44 KEWX 191816
MTRATT
SPECI KATT 191815Z AUTO 15010G19KT 10SM FEW022 SCT027 BKN032 29/23
A3000 RMK AO2 T02890233





000
SAUS44 KEWX 191803
MTRATT
SPECI KATT 191802Z AUTO 14007G16KT 100V170 9SM SCT020 BKN026 OVC050
28/23 A3000 RMK AO2 T02830233





000
SAUS44 KEWX 191803
MTRATT
SPECI KATT 191802Z AUTO 14007G16KT 100V170 9SM SCT020 BKN026 OVC050
28/23 A3000 RMK AO2 T02830233





000
SAUS44 KEWX 191753
MTRATT
METAR KATT 191751Z AUTO 12008KT 100V170 9SM SCT018 SCT024 BKN039
28/24 A3001 RMK AO2 SLP148 60000 T02830239 10289 20239 56012





000
SAUS44 KEWX 191714
MTRATT
SPECI KATT 191713Z AUTO 14008KT 8SM BKN016 BKN027 OVC048 28/24 A3002
RMK AO2 T02780239





000
SAUS44 KEWX 191706
MTRATT
SPECI KATT 191705Z AUTO 15008G16KT 8SM BKN014 BKN020 OVC048 27/23
A3002 RMK AO2 T02670233





000
SAUS44 KEWX 191706
MTRATT
SPECI KATT 191705Z AUTO 15008G16KT 8SM BKN014 BKN020 OVC048 27/23
A3002 RMK AO2 T02670233





000
SAUS44 KEWX 191652
MTRATT
METAR KATT 191651Z AUTO VRB06G15KT 8SM SCT014 BKN019 OVC039 27/23
A3002 RMK AO2 SLP153 T02670233





000
SAUS44 KEWX 191652
MTRATT
METAR KATT 191651Z AUTO VRB06G15KT 8SM SCT014 BKN019 OVC039 27/23
A3002 RMK AO2 SLP153 T02670233





000
SAUS44 KEWX 191626
MTRATT
SPECI KATT 191624Z AUTO 12007KT 10SM SCT012 SCT018 BKN035 28/24
A3002 RMK AO2 T02780239





000
SAUS44 KEWX 191553
MTRATT
METAR KATT 191551Z AUTO VRB06KT 7SM BKN012 BKN018 OVC023 26/23 A3003
RMK AO2 SLP156 T02560233





000
SAUS44 KEWX 191553
MTRATT
METAR KATT 191551Z AUTO VRB06KT 7SM BKN012 BKN018 OVC023 26/23 A3003
RMK AO2 SLP156 T02560233





000
SAUS44 KEWX 191529
MTRATT
SPECI KATT 191528Z AUTO 13008KT 8SM BKN010 OVC017 27/23 A3003 RMK
AO2 T02670233





000
SAUS44 KEWX 191452
MTRATT
METAR KATT 191451Z AUTO 11008KT 6SM BR BKN008 OVC012 25/23 A3004 RMK
AO2 RAE1353B02E20 CIG 006V010 SLP161 P0000 60000 T02500228 58003





    US Dept of Commerce
    National Oceanic and Atmospheric Administration
    National Weather Service
    1325 East West Highway
    Silver Spring, MD 20910
    Page Author: NWS Internet Services Team
Disclaimer
Information Quality
Credits
Glossary
Privacy Policy
Freedom of Information Act (FOIA)
About Us
Career Opportunities